E.r.brandenburg — A8SZ5 — position and weather

sailwx.info

Track history (hours):
 
Tides and Currents Weather Stations Pressure Air Temp Water Temp Dewpoint Dewpoint Depression Visibility Wind Speed Wind Dir Waves Ship Positions

E.r.brandenburg

Last reported at 2018-Mar-29 14:55 UTC. Time now 2018-Apr-26 13:26 UTC.
Position N 36°38' W 029°17'.
Warning: this ship's position is 27 days out of date.

Length 292 m; draft 11.2 m.

Type: Cargo ship. MMSI: 636091798.

Date/timePositionNaut miles runAvg speedWind from/ knotsBaromVisibWave heightAir tempDewpointWater temp
2018-Mar-29 14:55N 36°38' W 029°17'512.2
2018-Mar-29 14:30N 36°41' W 029°13'812.1
2018-Mar-29 13:53N 36°47' W 029°07'910.1
2018-Mar-29 13:00N 36°51' W 028°57'811.7
2018-Mar-29 12:18N 36°56' W 028°49'512.1
2018-Mar-29 11:53N 36°60' W 028°45'512.1
2018-Mar-29 11:30N 37°03' W 028°41'711.6
2018-Mar-29 10:54N 37°08' W 028°35'410.7
2018-Mar-29 10:30N 37°10' W 028°30'611.5
2018-Mar-29 09:59N 37°14' W 028°24'611.8
2018-Mar-29 09:30N 37°17' W 028°19'612.2
2018-Mar-29 09:00N 37°22' W 028°13'612.1
2018-Mar-29 08:30N 37°26' W 028°08'612.1
2018-Mar-29 08:00N 37°30' W 028°02'612.2
2018-Mar-29 07:30N 37°33' W 027°56'612.4
2018-Mar-29 07:00N 37°37' W 027°50'612.2
2018-Mar-29 06:30N 37°41' W 027°44'612.4
2018-Mar-29 06:00N 37°46' W 027°38'612.4
2018-Mar-29 05:30N 37°50' W 027°32'612.4
2018-Mar-29 05:00N 37°54' W 027°27'612.0
2018-Mar-29 04:31N 37°58' W 027°21'612.3
2018-Mar-29 04:00N 38°02' W 027°15'612.6
2018-Mar-29 03:30N 38°06' W 027°09'612.3
2018-Mar-29 03:00N 38°11' W 027°04'612.4
2018-Mar-29 02:30N 38°15' W 026°58'3312.1
2018-Mar-28 23:48N 38°38' W 026°28'512.1
2018-Mar-28 23:25N 38°41' W 026°23'712.4
2018-Mar-28 22:53N 38°46' W 026°17'512.7
2018-Mar-28 22:31N 38°49' W 026°13'712.4
2018-Mar-28 21:57N 38°54' W 026°07'  
2018-Mar-24 15:32N 51°04' W 005°41'111.4
2018-Mar-24 15:28N 51°04' W 005°40'511.8
2018-Mar-24 15:00N 51°06' W 005°32'612.0
2018-Mar-24 14:31N 51°08' W 005°23'612.3
2018-Mar-24 14:00N 51°10' W 005°14'612.4
2018-Mar-24 13:31N 51°13' W 005°05'612.9
2018-Mar-24 13:01N 51°15' W 004°55'713.1
2018-Mar-24 12:30N 51°17' W 004°45'713.1
2018-Mar-24 11:59N 51°20' W 004°35'612.5
2018-Mar-24 11:31N 51°22' W 004°26'2111.6
2018-Mar-24 09:40N 51°31' W 003°55'6 0.1
2018-Mar-22 06:22N 51°34' W 003°48'0 0.0
2018-Mar-22 05:46N 51°34' W 003°48'13 0.5
2018-Mar-21 02:20N 51°28' W 004°06'0 0.0
2018-Mar-21 01:56N 51°28' W 004°06'0 0.0
2018-Mar-21 01:14N 51°28' W 004°06'0 0.0
2018-Mar-21 00:59N 51°28' W 004°06'0 0.0
2018-Mar-21 00:20N 51°28' W 004°06'0 0.0
2018-Mar-20 23:56N 51°28' W 004°06'0 0.0
2018-Mar-20 23:29N 51°28' W 004°06'0 0.0
2018-Mar-20 22:41N 51°28' W 004°06'0 0.0
2018-Mar-20 03:41N 51°28' W 004°05'  
Track history (hours):
 
Tides and Currents Weather Stations Pressure Air Temp Water Temp Dewpoint Dewpoint Depression Visibility Wind Speed Wind Dir Waves Ship Positions

E.r.brandenburg

Last reported at 2018-Mar-29 14:55 UTC. Time now 2018-Apr-26 13:26 UTC.
Position N 36°38' W 029°17'.
Warning: this ship's position is 27 days out of date.

Length 292 m; draft 11.2 m.

Type: Cargo ship. MMSI: 636091798.

Date/timePositionNaut miles runAvg speedWind from/ knotsBaromVisibWave heightAir tempDewpointWater temp
2018-Mar-29 14:55N 36°38' W 029°17'512.2
2018-Mar-29 14:30N 36°41' W 029°13'812.1
2018-Mar-29 13:53N 36°47' W 029°07'910.1
2018-Mar-29 13:00N 36°51' W 028°57'811.7
2018-Mar-29 12:18N 36°56' W 028°49'512.1
2018-Mar-29 11:53N 36°60' W 028°45'512.1
2018-Mar-29 11:30N 37°03' W 028°41'711.6
2018-Mar-29 10:54N 37°08' W 028°35'410.7
2018-Mar-29 10:30N 37°10' W 028°30'611.5
2018-Mar-29 09:59N 37°14' W 028°24'611.8
2018-Mar-29 09:30N 37°17' W 028°19'612.2
2018-Mar-29 09:00N 37°22' W 028°13'612.1
2018-Mar-29 08:30N 37°26' W 028°08'612.1
2018-Mar-29 08:00N 37°30' W 028°02'612.2
2018-Mar-29 07:30N 37°33' W 027°56'612.4
2018-Mar-29 07:00N 37°37' W 027°50'612.2
2018-Mar-29 06:30N 37°41' W 027°44'612.4
2018-Mar-29 06:00N 37°46' W 027°38'612.4
2018-Mar-29 05:30N 37°50' W 027°32'612.4
2018-Mar-29 05:00N 37°54' W 027°27'612.0
2018-Mar-29 04:31N 37°58' W 027°21'612.3
2018-Mar-29 04:00N 38°02' W 027°15'612.6
2018-Mar-29 03:30N 38°06' W 027°09'612.3
2018-Mar-29 03:00N 38°11' W 027°04'612.4
2018-Mar-29 02:30N 38°15' W 026°58'3312.1
2018-Mar-28 23:48N 38°38' W 026°28'512.1
2018-Mar-28 23:25N 38°41' W 026°23'712.4
2018-Mar-28 22:53N 38°46' W 026°17'512.7
2018-Mar-28 22:31N 38°49' W 026°13'712.4
2018-Mar-28 21:57N 38°54' W 026°07'  
2018-Mar-24 15:32N 51°04' W 005°41'111.4
2018-Mar-24 15:28N 51°04' W 005°40'511.8
2018-Mar-24 15:00N 51°06' W 005°32'612.0
2018-Mar-24 14:31N 51°08' W 005°23'612.3
2018-Mar-24 14:00N 51°10' W 005°14'612.4
2018-Mar-24 13:31N 51°13' W 005°05'612.9
2018-Mar-24 13:01N 51°15' W 004°55'713.1
2018-Mar-24 12:30N 51°17' W 004°45'713.1
2018-Mar-24 11:59N 51°20' W 004°35'612.5
2018-Mar-24 11:31N 51°22' W 004°26'2111.6
2018-Mar-24 09:40N 51°31' W 003°55'6 0.1
2018-Mar-22 06:22N 51°34' W 003°48'0 0.0
2018-Mar-22 05:46N 51°34' W 003°48'13 0.5
2018-Mar-21 02:20N 51°28' W 004°06'0 0.0
2018-Mar-21 01:56N 51°28' W 004°06'0 0.0
2018-Mar-21 01:14N 51°28' W 004°06'0 0.0
2018-Mar-21 00:59N 51°28' W 004°06'0 0.0
2018-Mar-21 00:20N 51°28' W 004°06'0 0.0
2018-Mar-20 23:56N 51°28' W 004°06'0 0.0
2018-Mar-20 23:29N 51°28' W 004°06'0 0.0
2018-Mar-20 22:41N 51°28' W 004°06'0 0.0
2018-Mar-20 03:41N 51°28' W 004°05'  

Dump ship's entire track history